createdAt,value
2018-05-12T00:00:26.578Z,5.90
2018-05-12T00:02:52.524Z,5.93
2018-05-12T00:05:18.453Z,5.23
2018-05-12T00:07:44.401Z,5.17
2018-05-12T00:10:10.341Z,5.10
2018-05-12T00:12:36.286Z,6.30
2018-05-12T00:15:02.213Z,6.43
2018-05-12T00:17:28.137Z,6.63
2018-05-12T00:19:54.061Z,6.03
2018-05-12T00:22:19.983Z,6.63
2018-05-12T00:24:45.913Z,7.40
2018-05-12T00:27:11.826Z,7.03
2018-05-12T00:29:37.756Z,7.50
2018-05-12T00:32:03.662Z,9.20
2018-05-12T00:34:29.584Z,7.67
2018-05-12T00:36:55.536Z,9.23
2018-05-12T00:39:21.458Z,7.80
2018-05-12T00:41:47.378Z,8.73
2018-05-12T00:44:13.301Z,8.60
2018-05-12T00:46:39.246Z,8.23
2018-05-12T00:49:05.200Z,8.40
2018-05-12T00:51:31.137Z,8.57
2018-05-12T00:53:57.076Z,7.83
2018-05-12T00:56:23.037Z,9.03
2018-05-12T00:58:48.950Z,8.53
2018-05-12T01:01:14.900Z,8.50
2018-05-12T01:03:40.830Z,9.60
2018-05-12T01:06:06.765Z,9.43
2018-05-12T01:08:32.723Z,8.63
2018-05-12T01:10:58.641Z,9.47
2018-05-12T01:13:24.584Z,7.80
2018-05-12T01:15:50.500Z,9.00
2018-05-12T01:18:16.450Z,9.80
2018-05-12T01:20:42.380Z,10.27
2018-05-12T01:23:08.332Z,10.33
2018-05-12T01:25:34.255Z,9.97
2018-05-12T01:28:00.172Z,9.30
2018-05-12T01:30:26.141Z,9.40
2018-05-12T01:32:52.066Z,9.90
2018-05-12T01:35:18.014Z,9.20
2018-05-12T01:37:43.924Z,10.00
2018-05-12T01:40:09.837Z,9.50
2018-05-12T01:42:35.757Z,9.10
2018-05-12T01:45:01.683Z,8.10
2018-05-12T01:47:27.607Z,10.53
2018-05-12T01:49:53.531Z,10.20
2018-05-12T01:52:19.457Z,10.37
2018-05-12T01:54:45.360Z,10.03
2018-05-12T01:57:11.284Z,10.63
2018-05-12T01:59:37.215Z,9.17
2018-05-12T02:02:03.142Z,10.57
2018-05-12T02:04:29.066Z,10.70
2018-05-12T02:06:54.966Z,9.37
2018-05-12T02:09:20.899Z,9.70
2018-05-12T02:11:46.810Z,10.50
2018-05-12T02:14:12.721Z,8.63
2018-05-12T02:16:38.630Z,9.13
2018-05-12T02:19:04.551Z,10.27
2018-05-12T02:21:30.564Z,9.90
2018-05-12T02:23:56.480Z,8.90
2018-05-12T02:26:22.433Z,9.53
2018-05-12T02:28:48.359Z,9.30
2018-05-12T02:31:14.278Z,8.53
2018-05-12T02:33:40.234Z,10.63
2018-05-12T02:36:06.137Z,9.47
2018-05-12T02:38:32.061Z,10.70
2018-05-12T02:40:58.013Z,10.93
2018-05-12T02:43:23.937Z,10.17
2018-05-12T02:45:49.867Z,11.70
2018-05-12T02:48:15.771Z,10.90
2018-05-12T02:50:41.695Z,10.70
2018-05-12T02:53:07.632Z,10.23
2018-05-12T02:55:33.555Z,11.17
2018-05-12T02:57:59.507Z,10.83
2018-05-12T03:00:25.437Z,11.30
2018-05-12T03:02:51.349Z,12.43
2018-05-12T03:05:17.241Z,11.87
2018-05-12T03:07:43.174Z,11.43
2018-05-12T03:10:09.089Z,10.83
2018-05-12T03:12:35.080Z,11.57
2018-05-12T03:15:00.934Z,10.50
2018-05-12T03:17:26.857Z,11.30
2018-05-12T03:19:52.765Z,11.87
2018-05-12T03:22:18.687Z,10.43
2018-05-12T03:24:44.587Z,11.10
2018-05-12T03:27:10.526Z,11.00
2018-05-12T03:29:36.438Z,10.90
2018-05-12T03:32:02.345Z,11.17
2018-05-12T03:34:28.260Z,10.70
2018-05-12T03:36:54.187Z,11.53
2018-05-12T03:39:20.189Z,12.20
2018-05-12T03:41:46.048Z,11.80
2018-05-12T03:44:11.980Z,11.20
2018-05-12T03:46:37.894Z,11.37
2018-05-12T03:49:03.840Z,11.67
2018-05-12T03:51:29.748Z,11.13
2018-05-12T03:53:55.664Z,11.37
2018-05-12T03:56:21.606Z,12.07
2018-05-12T03:58:47.538Z,12.53
2018-05-12T04:01:13.464Z,12.13
2018-05-12T04:03:39.389Z,11.33
2018-05-12T04:06:17.530Z,10.37
2018-05-12T04:08:56.580Z,11.70
2018-05-12T04:11:34.714Z,12.27
2018-05-12T04:14:00.634Z,13.13
2018-05-12T04:16:26.557Z,14.30
2018-05-12T04:18:52.463Z,14.87
2018-05-12T04:21:18.385Z,13.27
2018-05-12T04:23:44.295Z,12.70
2018-05-12T04:26:10.197Z,12.17
2018-05-12T04:28:38.741Z,12.97
2018-05-12T04:31:04.660Z,12.73
2018-05-12T04:33:30.562Z,12.23
2018-05-12T04:35:56.495Z,12.13
2018-05-12T04:38:22.417Z,11.20
2018-05-12T04:40:48.344Z,11.83
2018-05-12T04:43:14.280Z,13.20
2018-05-12T04:45:40.191Z,14.30
2018-05-12T04:48:06.111Z,12.77
2018-05-12T04:50:32.033Z,13.20
2018-05-12T04:52:57.969Z,11.80
2018-05-12T04:55:23.884Z,12.50
2018-05-12T04:57:49.817Z,12.77
2018-05-12T05:00:15.733Z,14.00
2018-05-12T05:02:41.654Z,15.03
2018-05-12T05:05:07.577Z,13.07
2018-05-12T05:07:33.511Z,15.50
2018-05-12T05:09:59.409Z,14.53
2018-05-12T05:12:25.330Z,14.50
2018-05-12T05:14:51.256Z,16.10
2018-05-12T05:17:17.181Z,15.30
2018-05-12T05:19:43.117Z,15.93
2018-05-12T05:22:09.043Z,15.30
2018-05-12T05:24:34.980Z,14.20
2018-05-12T05:27:00.902Z,14.03
2018-05-12T05:29:26.824Z,14.67
2018-05-12T05:31:52.749Z,15.50
2018-05-12T05:34:18.679Z,14.77
2018-05-12T05:36:44.600Z,15.70
2018-05-12T05:39:10.535Z,15.33
2018-05-12T05:41:36.532Z,12.47
2018-05-12T05:44:02.475Z,15.07
2018-05-12T05:46:28.421Z,12.63
2018-05-12T05:48:54.373Z,12.63
2018-05-12T05:51:20.315Z,12.50
2018-05-12T05:53:46.225Z,12.10
2018-05-12T05:56:12.151Z,12.20
2018-05-12T05:58:38.091Z,11.00
2018-05-12T06:01:04.611Z,11.97
2018-05-12T06:03:30.566Z,12.33
2018-05-12T06:05:56.482Z,12.70
2018-05-12T06:08:22.432Z,12.77
2018-05-12T06:10:48.347Z,12.27
2018-05-12T06:13:14.255Z,12.50
2018-05-12T06:15:40.195Z,13.30
2018-05-12T06:18:06.238Z,13.33
2018-05-12T06:20:32.080Z,12.63
2018-05-12T06:22:58.052Z,12.47
2018-05-12T06:25:23.988Z,14.37
2018-05-12T06:27:49.939Z,14.43
2018-05-12T06:30:15.878Z,13.77
2018-05-12T06:32:41.802Z,13.47
2018-05-12T06:35:07.721Z,13.73
2018-05-12T06:37:33.637Z,11.00
2018-05-12T06:39:59.608Z,12.03
2018-05-12T06:42:26.261Z,13.23
2018-05-12T06:44:52.227Z,12.47
2018-05-12T06:47:18.178Z,13.87
2018-05-12T06:49:44.084Z,14.37
2018-05-12T06:52:10.025Z,13.97
2018-05-12T06:54:35.966Z,12.10
2018-05-12T06:57:01.884Z,12.53
2018-05-12T06:59:27.802Z,11.87
2018-05-12T07:01:53.741Z,13.70
2018-05-12T07:04:19.651Z,14.00
2018-05-12T07:06:45.575Z,13.97
2018-05-12T07:09:11.509Z,15.33
2018-05-12T07:11:37.453Z,12.70
2018-05-12T07:14:03.387Z,13.40
2018-05-12T07:16:29.322Z,12.90
2018-05-12T07:18:55.255Z,13.60
2018-05-12T07:21:21.175Z,13.10
2018-05-12T07:23:47.113Z,14.83
2018-05-12T07:26:13.026Z,12.60
2018-05-12T07:28:38.950Z,11.83
2018-05-12T07:31:04.865Z,12.77
2018-05-12T07:33:30.799Z,15.70
2018-05-12T07:35:56.724Z,13.27
2018-05-12T07:38:22.654Z,11.97
2018-05-12T07:40:48.596Z,17.00
2018-05-12T07:43:14.528Z,13.70
2018-05-12T07:45:40.458Z,16.00
2018-05-12T07:48:06.767Z,15.93
2018-05-12T07:50:32.711Z,15.73
2018-05-12T07:52:58.654Z,14.83
2018-05-12T07:55:24.595Z,14.80
2018-05-12T07:57:50.522Z,16.63
2018-05-12T08:00:16.464Z,13.90
2018-05-12T08:02:42.394Z,16.27
2018-05-12T08:05:08.340Z,15.27
2018-05-12T08:07:34.267Z,13.73
2018-05-12T08:10:00.184Z,14.53
2018-05-12T08:12:26.115Z,14.13
2018-05-12T08:14:52.058Z,17.30
2018-05-12T08:17:18.003Z,16.87
2018-05-12T08:19:43.927Z,15.87
2018-05-12T08:22:09.870Z,14.17
2018-05-12T08:24:35.787Z,12.70
2018-05-12T08:27:01.710Z,13.63
2018-05-12T08:29:27.667Z,14.53
2018-05-12T08:31:53.615Z,12.70
2018-05-12T08:34:19.541Z,12.50
2018-05-12T08:36:45.467Z,12.30
2018-05-12T08:39:11.412Z,13.67
2018-05-12T08:41:37.351Z,12.93
2018-05-12T08:44:03.307Z,11.73
2018-05-12T08:46:29.227Z,13.57
2018-05-12T08:48:55.169Z,13.97
2018-05-12T08:51:21.115Z,12.53
2018-05-12T08:53:47.041Z,12.77
2018-05-12T08:56:12.945Z,12.67
2018-05-12T08:58:38.871Z,13.20
2018-05-12T09:01:04.773Z,13.83
2018-05-12T09:03:30.697Z,13.43
2018-05-12T09:05:57.401Z,12.47
2018-05-12T09:08:23.320Z,13.73
2018-05-12T09:10:49.237Z,12.10
2018-05-12T09:13:15.186Z,12.97
2018-05-12T09:15:41.127Z,11.13
2018-05-12T09:18:07.042Z,15.30
2018-05-12T09:20:33.002Z,12.17
2018-05-12T09:22:58.988Z,15.50
2018-05-12T09:25:24.870Z,12.77
2018-05-12T09:27:50.825Z,14.20
2018-05-12T09:30:16.774Z,11.60
2018-05-12T09:32:42.712Z,11.77
2018-05-12T09:35:08.614Z,11.57
2018-05-12T09:37:34.555Z,13.53
2018-05-12T09:40:00.486Z,12.27
2018-05-12T09:42:26.504Z,13.47
2018-05-12T09:44:52.412Z,12.03
2018-05-12T09:47:18.383Z,11.20
2018-05-12T09:49:44.290Z,10.77
2018-05-12T09:52:10.213Z,11.27
2018-05-12T09:54:36.154Z,11.40
2018-05-12T09:57:02.056Z,13.30
2018-05-12T09:59:28.085Z,13.67
2018-05-12T10:01:53.937Z,12.67
2018-05-12T10:04:19.854Z,10.80
2018-05-12T10:06:45.768Z,12.90
2018-05-12T10:09:11.736Z,12.17
2018-05-12T10:11:37.665Z,12.43
2018-05-12T10:14:03.645Z,12.07
2018-05-12T10:16:29.553Z,10.47
2018-05-12T10:18:55.503Z,11.63
2018-05-12T10:21:21.435Z,10.50
2018-05-12T10:23:47.362Z,10.07
2018-05-12T10:26:13.294Z,9.93
2018-05-12T10:28:39.232Z,10.07
2018-05-12T10:31:05.193Z,10.20
2018-05-12T10:33:31.133Z,11.70
2018-05-12T10:35:57.078Z,10.17
2018-05-12T10:38:23.002Z,11.77
2018-05-12T10:40:48.938Z,11.17
2018-05-12T10:43:14.866Z,11.70
2018-05-12T10:45:40.814Z,11.43
2018-05-12T10:48:06.721Z,14.37
2018-05-12T10:50:32.658Z,12.03
2018-05-12T10:52:58.601Z,12.80
2018-05-12T10:55:24.519Z,11.03
2018-05-12T10:57:50.442Z,12.20
2018-05-12T11:00:16.357Z,9.90
2018-05-12T11:02:42.378Z,9.20
2018-05-12T11:05:08.304Z,11.33
2018-05-12T11:07:49.165Z,11.37
2018-05-12T11:10:15.092Z,13.00
2018-05-12T11:12:41.032Z,12.60
2018-05-12T11:15:06.971Z,11.97
2018-05-12T11:17:32.889Z,13.73
2018-05-12T11:19:58.809Z,15.17
2018-05-12T11:22:24.700Z,12.77
2018-05-12T11:24:50.623Z,13.53
2018-05-12T11:27:16.547Z,12.70
2018-05-12T11:29:42.499Z,14.33
2018-05-12T11:32:08.453Z,14.23
2018-05-12T11:34:34.403Z,14.57
2018-05-12T11:37:00.315Z,15.00
2018-05-12T11:39:26.270Z,14.90
2018-05-12T11:41:52.185Z,18.30
2018-05-12T11:44:18.095Z,15.03
2018-05-12T11:46:44.044Z,13.87
2018-05-12T11:49:09.971Z,17.73
2018-05-12T11:51:35.910Z,16.13
2018-05-12T11:54:01.951Z,13.23
2018-05-12T11:56:27.810Z,13.77
2018-05-12T11:58:53.768Z,14.80
2018-05-12T12:01:19.716Z,13.50
2018-05-12T12:03:45.734Z,16.50
2018-05-12T12:06:11.632Z,15.50
2018-05-12T12:08:37.576Z,14.77
2018-05-12T12:11:03.508Z,14.47
2018-05-12T12:13:29.454Z,14.57
2018-05-12T12:15:55.374Z,13.63
2018-05-12T12:18:21.340Z,15.03
2018-05-12T12:20:47.286Z,17.27
2018-05-12T12:23:13.247Z,15.00
2018-05-12T12:25:39.180Z,18.97
2018-05-12T12:28:05.151Z,14.17
2018-05-12T12:30:31.101Z,16.80
2018-05-12T12:32:57.058Z,13.03
2018-05-12T12:35:22.969Z,13.23
2018-05-12T12:37:48.925Z,14.23
2018-05-12T12:40:14.855Z,12.27
2018-05-12T12:42:40.764Z,14.02
2018-05-12T12:45:06.815Z,12.80
2018-05-12T12:47:32.691Z,15.00
2018-05-12T12:49:58.657Z,11.77
2018-05-12T12:52:24.589Z,11.82
2018-05-12T12:54:50.515Z,14.65
2018-05-12T12:57:16.439Z,13.57
2018-05-12T12:59:42.358Z,13.07
2018-05-12T13:02:08.291Z,11.70
2018-05-12T13:04:34.231Z,11.93
2018-05-12T13:07:00.151Z,11.40
2018-05-12T13:09:26.087Z,11.70
2018-05-12T13:11:52.035Z,11.90
2018-05-12T13:14:17.970Z,13.17
2018-05-12T13:16:43.896Z,12.53
2018-05-12T13:19:09.807Z,12.63
2018-05-12T13:21:35.857Z,14.57
2018-05-12T13:24:01.768Z,14.00
2018-05-12T13:26:27.676Z,12.57
2018-05-12T13:28:53.635Z,14.50
2018-05-12T13:31:19.570Z,16.03
2018-05-12T13:33:45.495Z,12.23
2018-05-12T13:36:11.431Z,10.73
2018-05-12T13:38:37.411Z,10.67
2018-05-12T13:41:03.323Z,13.33
2018-05-12T13:43:29.271Z,12.70
2018-05-12T13:45:55.384Z,11.00
2018-05-12T13:48:21.309Z,14.80
2018-05-12T13:50:47.265Z,10.63
2018-05-12T13:53:13.183Z,13.45
2018-05-12T13:55:39.198Z,14.75
2018-05-12T13:58:05.062Z,14.43
2018-05-12T14:00:31.053Z,12.20
2018-05-12T14:02:56.986Z,16.15
2018-05-12T14:05:22.958Z,16.30
2018-05-12T14:07:48.901Z,13.07
2018-05-12T14:10:14.853Z,12.77
2018-05-12T14:12:40.767Z,12.20
2018-05-12T14:15:06.706Z,13.98
2018-05-12T14:17:32.662Z,17.02
2018-05-12T14:19:58.597Z,13.75
2018-05-12T14:22:24.579Z,15.63
2018-05-12T14:24:50.491Z,13.90
2018-05-12T14:27:16.461Z,14.32
2018-05-12T14:29:42.387Z,13.15
2018-05-12T14:32:08.318Z,11.95
2018-05-12T14:34:34.304Z,13.48
2018-05-12T14:37:00.246Z,14.45
2018-05-12T14:39:26.201Z,13.10
2018-05-12T14:41:52.127Z,14.63
2018-05-12T14:44:18.051Z,13.27
2018-05-12T14:46:43.971Z,14.95
2018-05-12T14:49:09.908Z,13.75
2018-05-12T14:51:35.841Z,14.55
2018-05-12T14:54:01.780Z,13.85
2018-05-12T14:56:27.692Z,15.25
2018-05-12T14:58:53.620Z,17.85
2018-05-12T15:01:19.554Z,12.80
2018-05-12T15:03:45.523Z,14.77
2018-05-12T15:06:11.453Z,13.13
2018-05-12T15:08:37.388Z,13.18
2018-05-12T15:11:03.329Z,12.35
2018-05-12T15:13:29.241Z,13.25
2018-05-12T15:15:55.182Z,15.20
2018-05-12T15:18:21.100Z,14.35
2018-05-12T15:20:47.050Z,13.75
2018-05-12T15:23:12.989Z,13.60
2018-05-12T15:25:38.939Z,15.00
2018-05-12T15:28:04.878Z,12.98
2018-05-12T15:30:30.829Z,14.55
2018-05-12T15:32:56.758Z,15.48
2018-05-12T15:35:22.740Z,15.00
2018-05-12T15:37:48.679Z,14.60
2018-05-12T15:40:14.643Z,14.48
2018-05-12T15:42:40.587Z,15.15
2018-05-12T15:45:06.942Z,15.07
2018-05-12T15:47:32.887Z,15.60
2018-05-12T15:49:58.900Z,12.13
2018-05-12T15:52:24.829Z,12.05
2018-05-12T15:54:50.769Z,11.18
2018-05-12T15:57:16.730Z,12.10
2018-05-12T15:59:42.663Z,11.93
2018-05-12T16:02:08.575Z,12.43
2018-05-12T16:04:34.546Z,12.15
2018-05-12T16:07:00.467Z,11.38
2018-05-12T16:09:26.412Z,11.88
2018-05-12T16:11:52.331Z,13.27
2018-05-12T16:14:18.301Z,10.30
2018-05-12T16:16:44.250Z,10.25
2018-05-12T16:19:10.216Z,11.80
2018-05-12T16:21:36.213Z,10.52
2018-05-12T16:24:02.133Z,10.75
2018-05-12T16:26:28.091Z,11.32
2018-05-12T16:28:54.025Z,10.57
2018-05-12T16:31:20.004Z,11.35
2018-05-12T16:33:45.914Z,13.38
2018-05-12T16:36:11.850Z,12.70
2018-05-12T16:38:37.780Z,12.13
2018-05-12T16:41:03.746Z,13.50
2018-05-12T16:43:29.676Z,12.77
2018-05-12T16:45:55.604Z,14.87
2018-05-12T16:48:21.515Z,13.03
2018-05-12T16:50:47.619Z,14.43
2018-05-12T16:53:13.411Z,15.67
2018-05-12T16:55:39.354Z,13.83
2018-05-12T16:58:05.288Z,13.43
2018-05-12T17:00:31.224Z,14.13
2018-05-12T17:02:57.162Z,12.63
2018-05-12T17:05:23.084Z,14.13
2018-05-12T17:07:49.053Z,14.30
2018-05-12T17:10:14.986Z,12.93
2018-05-12T17:12:40.967Z,14.13
2018-05-12T17:15:06.891Z,15.13
2018-05-12T17:17:32.863Z,13.43
2018-05-12T17:19:58.778Z,14.23
2018-05-12T17:22:24.725Z,14.17
2018-05-12T17:24:50.663Z,12.40
2018-05-12T17:27:16.595Z,13.87
2018-05-12T17:29:42.590Z,14.27
2018-05-12T17:32:08.519Z,16.00
2018-05-12T17:34:34.465Z,14.67
2018-05-12T17:37:00.388Z,14.77
2018-05-12T17:39:26.348Z,14.27
2018-05-12T17:41:52.312Z,14.67
2018-05-12T17:44:18.339Z,14.27
2018-05-12T17:46:44.228Z,15.70
2018-05-12T17:49:11.014Z,14.13
2018-05-12T17:51:36.982Z,13.97
2018-05-12T17:54:02.910Z,14.73
2018-05-12T17:56:28.866Z,15.00
2018-05-12T17:58:54.816Z,13.90
2018-05-12T18:01:20.754Z,14.17
2018-05-12T18:03:46.748Z,16.60
2018-05-12T18:06:15.028Z,14.60
2018-05-12T18:08:40.957Z,15.23
2018-05-12T18:11:07.842Z,16.00
2018-05-12T18:13:33.772Z,15.33
2018-05-12T18:15:59.722Z,15.20
2018-05-12T18:18:25.694Z,15.93
2018-05-12T18:20:51.592Z,16.10
2018-05-12T18:23:17.537Z,15.60
2018-05-12T18:25:43.474Z,15.60
2018-05-12T18:28:09.462Z,14.97
2018-05-12T18:30:35.403Z,16.90
2018-05-12T18:33:01.359Z,16.77
2018-05-12T18:35:27.302Z,16.37
2018-05-12T18:37:53.246Z,17.03
2018-05-12T18:40:19.163Z,17.27
2018-05-12T18:42:45.101Z,18.20
2018-05-12T18:45:11.017Z,16.33
2018-05-12T18:47:36.967Z,16.83
2018-05-12T18:50:02.961Z,15.93
2018-05-12T18:52:28.871Z,18.20
2018-05-12T18:54:54.937Z,16.40
2018-05-12T18:57:20.869Z,16.70
2018-05-12T18:59:46.819Z,16.33
2018-05-12T19:02:12.757Z,15.23
2018-05-12T19:04:38.698Z,17.70
2018-05-12T19:07:04.654Z,17.00
2018-05-12T19:09:30.601Z,17.23
2018-05-12T19:11:56.581Z,17.53
2018-05-12T19:14:22.540Z,17.33
2018-05-12T19:16:48.492Z,17.03
2018-05-12T19:19:14.433Z,17.80
2018-05-12T19:21:40.393Z,18.07
2018-05-12T19:24:06.375Z,17.23
2018-05-12T19:26:32.340Z,17.87
2018-05-12T19:28:58.436Z,18.70
2018-05-12T19:31:24.394Z,18.43
2018-05-12T19:33:50.342Z,18.40
2018-05-12T19:36:16.325Z,16.47
2018-05-12T19:38:42.339Z,17.40
2018-05-12T19:41:08.307Z,17.43
2018-05-12T19:43:34.292Z,17.87
2018-05-12T19:46:00.222Z,18.40
2018-05-12T19:48:26.204Z,17.43
2018-05-12T19:50:52.126Z,16.63
2018-05-12T19:53:18.094Z,17.13
2018-05-12T19:55:44.056Z,17.57
2018-05-12T19:58:10.008Z,17.70
2018-05-12T20:00:35.958Z,17.47
2018-05-12T20:03:01.941Z,18.37
2018-05-12T20:05:27.868Z,15.47
2018-05-12T20:07:53.843Z,18.70
2018-05-12T20:10:19.849Z,15.57
2018-05-12T20:12:45.849Z,17.57
2018-05-12T20:15:11.811Z,17.87
2018-05-12T20:17:37.758Z,17.03
2018-05-12T20:20:03.831Z,16.50
2018-05-12T20:22:29.766Z,16.70
2018-05-12T20:24:55.781Z,13.93
2018-05-12T20:27:21.749Z,16.40
2018-05-12T20:29:48.689Z,15.90
2018-05-12T20:32:14.637Z,17.40
2018-05-12T20:34:40.591Z,15.17
2018-05-12T20:37:06.618Z,16.20
2018-05-12T20:39:32.520Z,15.83
2018-05-12T20:41:58.517Z,17.37
2018-05-12T20:44:24.465Z,16.70
2018-05-12T20:46:50.458Z,16.20
2018-05-12T20:49:16.383Z,17.27
2018-05-12T20:51:42.428Z,18.63
2018-05-12T20:54:08.400Z,16.53
2018-05-12T20:56:34.330Z,17.00
2018-05-12T20:59:00.255Z,16.50
2018-05-12T21:01:26.193Z,16.37
2018-05-12T21:03:52.189Z,15.67
2018-05-12T21:06:18.120Z,18.03
2018-05-12T21:08:44.073Z,18.10
2018-05-12T21:11:10.011Z,17.10
2018-05-12T21:13:35.971Z,16.60
2018-05-12T21:16:01.912Z,15.73
2018-05-12T21:18:27.902Z,16.40
2018-05-12T21:20:53.838Z,16.93
2018-05-12T21:23:19.774Z,17.00
2018-05-12T21:25:45.704Z,15.80
2018-05-12T21:28:11.647Z,16.40
2018-05-12T21:30:37.581Z,17.67
2018-05-12T21:33:03.498Z,17.57
2018-05-12T21:35:29.451Z,17.00
2018-05-12T21:37:55.422Z,15.23
2018-05-12T21:40:21.346Z,17.40
2018-05-12T21:42:47.260Z,17.03
2018-05-12T21:45:13.211Z,16.23
2018-05-12T21:47:39.922Z,18.13
2018-05-12T21:50:07.480Z,15.80
2018-05-12T21:52:33.427Z,16.10
2018-05-12T21:54:59.334Z,14.47
2018-05-12T21:57:25.285Z,15.93
2018-05-12T21:59:51.251Z,16.80
2018-05-12T22:02:17.219Z,15.73
2018-05-12T22:04:43.141Z,15.63
2018-05-12T22:07:09.073Z,15.27
2018-05-12T22:09:35.007Z,14.53
2018-05-12T22:12:00.915Z,13.27
2018-05-12T22:14:26.845Z,13.77
2018-05-12T22:16:52.791Z,16.80
2018-05-12T22:19:18.717Z,15.13
2018-05-12T22:21:44.665Z,14.83
2018-05-12T22:24:10.601Z,14.87
2018-05-12T22:26:36.524Z,13.70
2018-05-12T22:29:02.454Z,14.43
2018-05-12T22:31:28.389Z,15.70
2018-05-12T22:33:54.394Z,13.77
2018-05-12T22:36:20.316Z,13.37
2018-05-12T22:38:46.269Z,12.57
2018-05-12T22:41:12.218Z,13.67
2018-05-12T22:43:38.134Z,13.27
2018-05-12T22:46:04.062Z,15.60
2018-05-12T22:48:29.987Z,13.73
2018-05-12T22:50:55.922Z,13.03
2018-05-12T22:53:21.826Z,13.40
2018-05-12T22:55:47.726Z,15.37
2018-05-12T22:58:13.666Z,16.87
2018-05-12T23:00:39.596Z,16.00
2018-05-12T23:03:05.508Z,16.77
2018-05-12T23:05:31.453Z,14.43
2018-05-12T23:07:57.352Z,14.20
2018-05-12T23:10:23.285Z,14.60
2018-05-12T23:12:49.227Z,15.13
2018-05-12T23:15:15.166Z,13.33
2018-05-12T23:17:41.126Z,15.47
2018-05-12T23:20:07.044Z,13.77
2018-05-12T23:22:32.964Z,13.40
2018-05-12T23:24:58.949Z,15.37
2018-05-12T23:27:24.831Z,13.03
2018-05-12T23:29:50.742Z,12.93
2018-05-12T23:32:16.701Z,12.23
2018-05-12T23:34:42.641Z,13.30
2018-05-12T23:37:08.581Z,13.43
2018-05-12T23:39:34.523Z,12.07
2018-05-12T23:42:00.443Z,12.27
2018-05-12T23:44:26.378Z,13.13
2018-05-12T23:46:52.283Z,12.37
2018-05-12T23:49:18.209Z,11.17
2018-05-12T23:51:44.143Z,12.67
2018-05-12T23:54:10.064Z,14.07
2018-05-12T23:56:35.989Z,13.40
2018-05-12T23:59:01.937Z,13.00
